createdAt,value
2023-04-09T00:01:56.303Z,21.03
2023-04-09T00:04:27.629Z,20.90
2023-04-09T00:07:03.987Z,18.47
2023-04-09T00:09:41.354Z,21.27
2023-04-09T00:12:10.633Z,20.63
2023-04-09T00:14:41.809Z,22.13
2023-04-09T00:17:11.231Z,21.50
2023-04-09T00:19:41.965Z,20.87
2023-04-09T00:22:11.552Z,23.13
2023-04-09T00:24:48.487Z,19.87
2023-04-09T00:27:26.509Z,22.00
2023-04-09T00:30:05.646Z,19.63
2023-04-09T00:32:37.315Z,19.70
2023-04-09T00:35:16.049Z,18.53
2023-04-09T00:37:49.330Z,18.00
2023-04-09T00:40:21.783Z,21.60
2023-04-09T00:42:55.667Z,17.40
2023-04-09T00:45:32.258Z,16.50
2023-04-09T00:48:00.503Z,18.13
2023-04-09T00:50:30.728Z,17.30
2023-04-09T00:52:59.901Z,13.30
2023-04-09T00:55:37.449Z,15.03
2023-04-09T00:58:05.733Z,14.43
2023-04-09T01:00:35.104Z,13.80
2023-04-09T01:03:05.515Z,18.37
2023-04-09T01:05:44.342Z,13.40
2023-04-09T01:08:17.785Z,14.03
2023-04-09T01:11:11.674Z,13.77
2023-04-09T01:13:47.589Z,14.13
2023-04-09T01:16:18.336Z,15.77
2023-04-09T01:18:52.477Z,13.43
2023-04-09T01:21:27.913Z,12.97
2023-04-09T01:24:01.672Z,13.33
2023-04-09T01:26:54.340Z,13.80
2023-04-09T01:29:38.287Z,12.13
2023-04-09T01:32:09.379Z,12.17
2023-04-09T01:34:39.983Z,11.73
2023-04-09T01:37:11.059Z,12.10
2023-04-09T01:39:43.416Z,12.30
2023-04-09T01:42:13.920Z,12.93
2023-04-09T01:44:44.276Z,14.00
2023-04-09T01:47:14.275Z,15.07
2023-04-09T01:49:47.407Z,11.90
2023-04-09T01:52:16.728Z,10.90
2023-04-09T01:54:44.908Z,14.27
2023-04-09T01:57:26.286Z,11.57
2023-04-09T01:59:57.251Z,12.30
2023-04-09T02:02:36.418Z,12.20
2023-04-09T02:05:10.430Z,12.93
2023-04-09T02:07:44.190Z,15.73
2023-04-09T02:10:25.370Z,12.50
2023-04-09T02:12:54.403Z,13.80
2023-04-09T02:15:28.253Z,15.40
2023-04-09T02:17:57.579Z,12.73
2023-04-09T02:20:26.077Z,16.80
2023-04-09T02:22:56.238Z,14.87
2023-04-09T02:25:29.847Z,14.30
2023-04-09T02:27:59.974Z,14.20
2023-04-09T02:30:37.844Z,14.67
2023-04-09T02:33:09.637Z,12.73
2023-04-09T02:35:38.112Z,15.27
2023-04-09T02:38:15.656Z,15.73
2023-04-09T02:40:44.537Z,16.43
2023-04-09T02:43:16.451Z,15.13
2023-04-09T02:45:48.392Z,15.60
2023-04-09T02:48:16.963Z,14.33
2023-04-09T02:50:57.442Z,15.83
2023-04-09T02:53:28.666Z,15.80
2023-04-09T02:55:58.093Z,15.17
2023-04-09T02:58:35.683Z,15.47
2023-04-09T03:01:12.992Z,16.77
2023-04-09T03:03:43.270Z,15.70
2023-04-09T03:06:15.068Z,14.77
2023-04-09T03:08:43.942Z,15.00
2023-04-09T03:11:22.090Z,19.33
2023-04-09T03:13:50.565Z,16.67
2023-04-09T03:16:22.650Z,16.80
2023-04-09T03:18:53.452Z,19.80
2023-04-09T03:21:24.263Z,17.10
2023-04-09T03:24:02.280Z,16.37
2023-04-09T03:26:37.609Z,18.27
2023-04-09T03:29:14.806Z,15.70
2023-04-09T03:31:47.702Z,17.43
2023-04-09T03:34:26.947Z,16.33
2023-04-09T03:37:01.127Z,17.30
2023-04-09T03:39:34.065Z,16.10
2023-04-09T03:42:03.348Z,19.27
2023-04-09T03:44:42.078Z,17.70
2023-04-09T03:47:21.184Z,16.30
2023-04-09T03:49:52.419Z,15.67
2023-04-09T03:52:26.112Z,16.40
2023-04-09T03:55:08.374Z,17.77
2023-04-09T03:57:38.010Z,18.10
2023-04-09T04:00:20.051Z,18.53
2023-04-09T04:03:33.968Z,17.03
2023-04-09T04:06:18.649Z,16.63
2023-04-09T04:09:10.290Z,17.17
2023-04-09T04:11:54.893Z,18.97
2023-04-09T04:14:27.197Z,17.10
2023-04-09T04:17:09.170Z,15.63
2023-04-09T04:19:44.919Z,15.87
2023-04-09T04:22:24.260Z,18.80
2023-04-09T04:25:00.914Z,16.90
2023-04-09T04:27:33.760Z,16.53
2023-04-09T04:30:06.251Z,16.00
2023-04-09T04:32:56.511Z,16.50
2023-04-09T04:35:39.498Z,15.37
2023-04-09T04:38:14.902Z,15.80
2023-04-09T04:40:49.906Z,17.13
2023-04-09T04:43:20.442Z,15.97
2023-04-09T04:45:50.969Z,20.33
2023-04-09T04:48:22.528Z,17.30
2023-04-09T04:51:02.816Z,18.57
2023-04-09T04:53:43.286Z,17.17
2023-04-09T04:56:20.778Z,17.77
2023-04-09T04:59:01.893Z,18.10
2023-04-09T05:01:38.802Z,19.20
2023-04-09T05:04:11.454Z,16.67
2023-04-09T05:06:48.999Z,19.07
2023-04-09T05:09:22.621Z,19.20
2023-04-09T05:12:04.681Z,18.60
2023-04-09T05:14:34.039Z,18.07
2023-04-09T05:17:05.787Z,20.87
2023-04-09T05:19:55.599Z,22.20
2023-04-09T05:22:56.156Z,21.50
2023-04-09T05:25:42.640Z,22.10
2023-04-09T05:28:20.859Z,22.50
2023-04-09T05:31:15.364Z,19.43
2023-04-09T05:33:53.671Z,19.90
2023-04-09T05:36:32.305Z,20.70
2023-04-09T05:39:08.086Z,22.57
2023-04-09T05:41:43.320Z,21.10
2023-04-09T05:44:43.640Z,23.73
2023-04-09T05:47:24.105Z,21.80
2023-04-09T05:50:20.263Z,24.67
2023-04-09T05:52:53.286Z,23.00
2023-04-09T05:55:30.862Z,22.80
2023-04-09T05:58:02.629Z,25.03
2023-04-09T06:00:32.229Z,20.57
2023-04-09T06:03:02.178Z,24.27
2023-04-09T06:05:34.467Z,24.80
2023-04-09T06:08:12.678Z,20.70
2023-04-09T06:10:55.177Z,25.83
2023-04-09T06:13:26.470Z,25.43
2023-04-09T06:16:00.580Z,27.77
2023-04-09T06:18:29.614Z,27.50
2023-04-09T06:21:06.915Z,25.87
2023-04-09T06:23:39.817Z,29.03
2023-04-09T06:26:09.305Z,24.53
2023-04-09T06:28:38.275Z,26.20
2023-04-09T06:31:09.890Z,26.47
2023-04-09T06:33:41.313Z,27.60
2023-04-09T06:36:12.078Z,33.80
2023-04-09T06:38:42.370Z,27.40
2023-04-09T06:41:26.492Z,29.73
2023-04-09T06:44:05.205Z,28.27
2023-04-09T06:46:34.991Z,27.60
2023-04-09T06:49:04.245Z,29.10
2023-04-09T06:51:36.185Z,29.87
2023-04-09T06:54:07.036Z,29.47
2023-04-09T06:56:50.971Z,31.83
2023-04-09T06:59:19.403Z,29.60
2023-04-09T07:01:51.391Z,29.10
2023-04-09T07:04:21.306Z,32.80
2023-04-09T07:06:57.565Z,29.23
2023-04-09T07:09:28.376Z,30.10
2023-04-09T07:12:05.110Z,32.37
2023-04-09T07:14:33.198Z,32.70
2023-04-09T07:17:03.855Z,28.97
2023-04-09T07:19:43.917Z,33.77
2023-04-09T07:22:19.775Z,32.10
2023-04-09T07:24:54.411Z,31.90
2023-04-09T07:27:28.330Z,32.93
2023-04-09T07:29:58.746Z,32.27
2023-04-09T07:32:28.557Z,32.17
2023-04-09T07:35:01.659Z,30.00
2023-04-09T07:37:33.153Z,34.43
2023-04-09T07:40:04.140Z,34.63
2023-04-09T07:42:41.194Z,37.33
2023-04-09T07:45:19.892Z,35.30
2023-04-09T07:47:52.258Z,35.23
2023-04-09T07:50:22.623Z,34.30
2023-04-09T07:52:53.683Z,40.73
2023-04-09T07:55:22.875Z,34.67
2023-04-09T07:58:00.448Z,38.57
2023-04-09T08:00:32.213Z,33.47
2023-04-09T08:03:16.583Z,35.13
2023-04-09T08:05:48.093Z,32.50
2023-04-09T08:08:16.328Z,40.37
2023-04-09T08:10:45.855Z,44.50
2023-04-09T08:13:20.643Z,38.87
2023-04-09T08:15:58.795Z,39.53
2023-04-09T08:18:29.973Z,35.23
2023-04-09T08:21:08.591Z,39.83
2023-04-09T08:23:39.956Z,36.07
2023-04-09T08:26:10.154Z,39.87
2023-04-09T08:28:42.382Z,37.80
2023-04-09T08:31:12.663Z,37.57
2023-04-09T08:33:43.668Z,33.33
2023-04-09T08:36:22.563Z,37.50
2023-04-09T08:38:55.812Z,35.43
2023-04-09T08:41:34.946Z,33.03
2023-04-09T08:44:07.550Z,32.63
2023-04-09T08:46:43.031Z,30.03
2023-04-09T08:49:19.151Z,32.80
2023-04-09T08:51:53.379Z,29.40
2023-04-09T08:54:23.559Z,28.90
2023-04-09T08:56:57.619Z,30.70
2023-04-09T08:59:30.444Z,26.80
2023-04-09T09:02:09.450Z,27.23
2023-04-09T09:04:49.728Z,24.60
2023-04-09T09:07:21.692Z,25.17
2023-04-09T09:09:58.778Z,20.00
2023-04-09T09:12:41.853Z,21.67
2023-04-09T09:15:31.024Z,21.93
2023-04-09T09:18:01.798Z,24.57
2023-04-09T09:20:32.546Z,22.83
2023-04-09T09:23:03.389Z,19.53
2023-04-09T09:25:36.499Z,20.83
2023-04-09T09:28:13.860Z,21.50
2023-04-09T09:30:51.385Z,18.60
2023-04-09T09:33:20.553Z,19.33
2023-04-09T09:35:57.137Z,21.30
2023-04-09T09:38:30.923Z,20.40
2023-04-09T09:41:17.540Z,17.60
2023-04-09T09:43:49.447Z,18.77
2023-04-09T09:46:35.994Z,16.20
2023-04-09T09:49:04.711Z,20.57
2023-04-09T09:51:40.803Z,22.57
2023-04-09T09:54:20.895Z,19.83
2023-04-09T09:56:53.894Z,20.50
2023-04-09T09:59:33.914Z,21.20
2023-04-09T10:02:21.076Z,21.17
2023-04-09T10:04:51.871Z,22.73
2023-04-09T10:07:31.076Z,19.50
2023-04-09T10:10:02.797Z,21.00
2023-04-09T10:12:37.759Z,29.87
2023-04-09T10:15:08.631Z,19.93
2023-04-09T10:17:54.691Z,21.80
2023-04-09T10:20:32.057Z,19.70
2023-04-09T10:23:09.823Z,19.77
2023-04-09T10:25:38.499Z,24.50
2023-04-09T10:28:19.908Z,20.60
2023-04-09T10:30:48.608Z,21.93
2023-04-09T10:33:31.948Z,23.27
2023-04-09T10:36:03.174Z,22.13
2023-04-09T10:38:46.919Z,27.13
2023-04-09T10:41:25.644Z,23.77
2023-04-09T10:43:55.376Z,23.57
2023-04-09T10:46:29.882Z,28.10
2023-04-09T10:49:15.931Z,22.83
2023-04-09T10:51:53.912Z,24.60
2023-04-09T10:55:16.643Z,27.53
2023-04-09T10:57:45.704Z,28.27
2023-04-09T11:00:17.719Z,21.93
2023-04-09T11:03:23.463Z,25.20
2023-04-09T11:06:06.159Z,22.63
2023-04-09T11:08:37.378Z,23.57
2023-04-09T11:11:07.035Z,24.13
2023-04-09T11:13:43.461Z,20.90
2023-04-09T11:16:22.533Z,19.77
2023-04-09T11:18:53.551Z,24.17
2023-04-09T11:21:31.977Z,25.80
2023-04-09T11:24:03.950Z,31.07
2023-04-09T11:26:49.883Z,25.80
2023-04-09T11:29:21.261Z,30.57
2023-04-09T11:31:51.723Z,30.30
2023-04-09T11:34:21.272Z,28.40
2023-04-09T11:36:52.693Z,31.27
2023-04-09T11:39:24.205Z,24.23
2023-04-09T11:42:01.043Z,23.50
2023-04-09T11:44:32.004Z,23.40
2023-04-09T11:47:03.317Z,25.87
2023-04-09T11:49:40.237Z,30.77
2023-04-09T11:52:14.370Z,30.30
2023-04-09T11:54:44.112Z,25.77
2023-04-09T11:57:21.509Z,25.60
2023-04-09T11:59:49.519Z,25.67
2023-04-09T12:02:25.267Z,26.43
2023-04-09T12:04:59.424Z,25.97
2023-04-09T12:07:51.628Z,23.47
2023-04-09T12:10:38.134Z,23.70
2023-04-09T12:13:10.325Z,22.50
2023-04-09T12:15:41.225Z,18.77
2023-04-09T12:18:13.168Z,23.57
2023-04-09T12:20:52.241Z,24.43
2023-04-09T12:23:26.946Z,18.93
2023-04-09T12:26:00.855Z,20.93
2023-04-09T12:28:33.316Z,23.83
2023-04-09T12:31:08.546Z,26.63
2023-04-09T12:33:39.051Z,24.23
2023-04-09T12:36:09.501Z,22.70
2023-04-09T12:38:41.600Z,23.50
2023-04-09T12:41:26.228Z,25.63
2023-04-09T12:43:56.964Z,25.00
2023-04-09T12:46:35.850Z,21.50
2023-04-09T12:49:07.442Z,21.67
2023-04-09T12:51:38.146Z,21.77
2023-04-09T12:54:17.145Z,23.43
2023-04-09T12:56:54.134Z,20.40
2023-04-09T12:59:32.841Z,20.47
2023-04-09T13:02:05.209Z,18.43
2023-04-09T13:04:33.930Z,18.57
2023-04-09T13:07:04.004Z,16.17
2023-04-09T13:09:36.701Z,21.40
2023-04-09T13:12:06.165Z,21.27
2023-04-09T13:14:34.906Z,19.50
2023-04-09T13:17:12.604Z,16.10
2023-04-09T13:19:44.446Z,15.67
2023-04-09T13:22:14.445Z,19.60
2023-04-09T13:24:45.363Z,17.67
2023-04-09T13:27:17.522Z,20.30
2023-04-09T13:29:47.820Z,20.60
2023-04-09T13:32:23.153Z,20.43
2023-04-09T13:34:54.255Z,17.33
2023-04-09T13:37:23.836Z,19.27
2023-04-09T13:39:54.617Z,18.93
2023-04-09T13:42:25.176Z,17.93
2023-04-09T13:44:55.859Z,18.60
2023-04-09T13:47:27.577Z,18.60
2023-04-09T13:49:59.938Z,20.23
2023-04-09T13:52:31.544Z,21.00
2023-04-09T13:55:06.912Z,19.97
2023-04-09T13:57:36.834Z,22.10
2023-04-09T14:00:06.687Z,22.67
2023-04-09T14:02:36.530Z,30.67
2023-04-09T14:05:06.841Z,22.10
2023-04-09T14:07:36.072Z,20.70
2023-04-09T14:10:10.661Z,22.30
2023-04-09T14:12:38.982Z,18.80
2023-04-09T14:15:12.536Z,21.13
2023-04-09T14:17:41.909Z,20.67
2023-04-09T14:20:15.756Z,22.10
2023-04-09T14:22:49.175Z,17.90
2023-04-09T14:25:21.520Z,22.67
2023-04-09T14:27:50.916Z,24.03
2023-04-09T14:30:20.891Z,21.47
2023-04-09T14:32:50.108Z,22.33
2023-04-09T14:35:20.147Z,23.23
2023-04-09T14:37:53.261Z,23.10
2023-04-09T14:40:24.035Z,21.33
2023-04-09T14:42:53.489Z,24.50
2023-04-09T14:45:31.367Z,21.50
2023-04-09T14:48:00.851Z,22.40
2023-04-09T14:50:39.624Z,23.03
2023-04-09T14:53:08.108Z,22.90
2023-04-09T14:55:37.863Z,21.00
2023-04-09T14:58:09.363Z,21.80
2023-04-09T15:00:41.799Z,21.70
2023-04-09T15:03:10.035Z,18.50
2023-04-09T15:05:42.817Z,20.27
2023-04-09T15:08:19.465Z,18.80
2023-04-09T15:10:51.014Z,21.73
2023-04-09T15:13:22.788Z,21.90
2023-04-09T15:15:50.882Z,17.77
2023-04-09T15:18:21.838Z,15.47
2023-04-09T15:20:51.360Z,17.43
2023-04-09T15:23:19.933Z,16.23
2023-04-09T15:26:01.092Z,15.90
2023-04-09T15:28:35.815Z,15.70
2023-04-09T15:31:04.082Z,16.07
2023-04-09T15:33:33.055Z,15.47
2023-04-09T15:36:02.490Z,12.10
2023-04-09T15:38:30.957Z,13.97
2023-04-09T15:41:04.251Z,14.40
2023-04-09T15:43:32.923Z,15.87
2023-04-09T15:46:09.892Z,12.23
2023-04-09T15:48:39.547Z,11.43
2023-04-09T15:51:09.040Z,16.00
2023-04-09T15:53:38.763Z,11.23
2023-04-09T15:56:11.574Z,12.73
2023-04-09T15:58:43.973Z,10.63
2023-04-09T16:01:15.669Z,12.10
2023-04-09T16:03:52.401Z,12.00
2023-04-09T16:06:26.747Z,12.70
2023-04-09T16:08:55.213Z,10.47
2023-04-09T16:11:26.372Z,11.27
2023-04-09T16:13:58.345Z,11.00
2023-04-09T16:16:32.475Z,14.00
2023-04-09T16:19:01.143Z,10.23
2023-04-09T16:21:37.891Z,9.73
2023-04-09T16:24:11.290Z,12.90
2023-04-09T16:26:47.599Z,12.87
2023-04-09T16:29:30.206Z,12.63
2023-04-09T16:32:04.014Z,13.70
2023-04-09T16:34:34.349Z,12.60
2023-04-09T16:37:05.017Z,13.63
2023-04-09T16:39:43.446Z,12.83
2023-04-09T16:42:21.767Z,11.90
2023-04-09T16:44:53.670Z,13.13
2023-04-09T16:47:26.389Z,12.80
2023-04-09T16:49:59.506Z,13.63
2023-04-09T16:52:33.536Z,11.93
2023-04-09T16:55:01.585Z,13.43
2023-04-09T16:57:46.769Z,11.07
2023-04-09T17:00:18.791Z,11.50
2023-04-09T17:02:56.028Z,11.90
2023-04-09T17:05:33.401Z,11.40
2023-04-09T17:08:10.835Z,10.93
2023-04-09T17:10:45.229Z,11.27
2023-04-09T17:13:35.247Z,14.17
2023-04-09T17:16:07.909Z,12.43
2023-04-09T17:18:37.522Z,12.37
2023-04-09T17:21:07.910Z,11.70
2023-04-09T17:23:38.883Z,11.50
2023-04-09T17:26:07.303Z,12.07
2023-04-09T17:28:42.984Z,12.00
2023-04-09T17:31:18.841Z,11.60
2023-04-09T17:33:56.664Z,12.93
2023-04-09T17:36:26.204Z,14.97
2023-04-09T17:38:57.596Z,16.70
2023-04-09T17:41:26.301Z,15.83
2023-04-09T17:44:00.773Z,17.20
2023-04-09T17:46:31.945Z,15.60
2023-04-09T17:49:03.852Z,17.00
2023-04-09T17:51:34.746Z,15.57
2023-04-09T17:54:03.131Z,16.73
2023-04-09T17:56:39.035Z,19.90
2023-04-09T17:59:16.803Z,19.27
2023-04-09T18:01:47.824Z,23.83
2023-04-09T18:04:26.347Z,20.40
2023-04-09T18:06:56.013Z,20.37
2023-04-09T18:09:32.972Z,19.87
2023-04-09T18:12:02.833Z,21.03
2023-04-09T18:14:33.747Z,18.87
2023-04-09T18:17:04.794Z,20.67
2023-04-09T18:19:41.490Z,20.23
2023-04-09T18:22:15.053Z,19.17
2023-04-09T18:24:44.264Z,20.00
2023-04-09T18:27:20.710Z,23.37
2023-04-09T18:30:04.271Z,21.33
2023-04-09T18:32:33.823Z,19.80
2023-04-09T18:35:04.709Z,21.00
2023-04-09T18:37:34.292Z,17.33
2023-04-09T18:40:06.165Z,17.37
2023-04-09T18:42:36.209Z,15.03
2023-04-09T18:45:07.168Z,16.40
2023-04-09T18:47:43.325Z,17.30
2023-04-09T18:50:19.744Z,14.67
2023-04-09T18:52:50.492Z,20.77
2023-04-09T18:55:21.534Z,17.27
2023-04-09T18:57:53.296Z,18.00
2023-04-09T19:00:26.233Z,18.50
2023-04-09T19:02:58.025Z,16.30
2023-04-09T19:05:27.234Z,14.87
2023-04-09T19:08:02.355Z,16.20
2023-04-09T19:10:47.196Z,15.33
2023-04-09T19:13:16.936Z,16.90
2023-04-09T19:15:59.107Z,14.17
2023-04-09T19:18:34.088Z,17.57
2023-04-09T19:21:03.458Z,16.37
2023-04-09T19:23:34.470Z,17.20
2023-04-09T19:26:07.748Z,20.30
2023-04-09T19:28:37.935Z,17.27
2023-04-09T19:31:09.488Z,20.40
2023-04-09T19:33:46.904Z,18.37
2023-04-09T19:36:24.717Z,18.87
2023-04-09T19:38:56.771Z,17.70
2023-04-09T19:41:28.098Z,25.90
2023-04-09T19:44:04.697Z,30.20
2023-04-09T19:46:42.594Z,22.27
2023-04-09T19:49:12.614Z,19.53
2023-04-09T19:51:45.861Z,22.23
2023-04-09T19:54:16.656Z,18.97
2023-04-09T19:56:50.795Z,24.67
2023-04-09T19:59:21.319Z,20.30
2023-04-09T20:01:56.770Z,20.73
2023-04-09T20:04:25.358Z,22.27
2023-04-09T20:06:59.872Z,22.90
2023-04-09T20:09:29.384Z,23.73
2023-04-09T20:12:11.787Z,25.07
2023-04-09T20:14:41.017Z,23.47
2023-04-09T20:17:11.000Z,23.73
2023-04-09T20:19:40.674Z,24.90
2023-04-09T20:22:11.522Z,21.70
2023-04-09T20:24:43.849Z,26.93
2023-04-09T20:27:14.589Z,30.60
2023-04-09T20:29:46.696Z,21.10
2023-04-09T20:32:17.222Z,22.30
2023-04-09T20:34:49.648Z,23.20
2023-04-09T20:37:24.006Z,21.63
2023-04-09T20:39:53.269Z,22.73
2023-04-09T20:42:22.437Z,20.53
2023-04-09T20:44:54.265Z,19.70
2023-04-09T20:47:37.693Z,23.27
2023-04-09T20:50:18.288Z,23.73
2023-04-09T20:52:54.736Z,20.83
2023-04-09T20:55:32.800Z,24.13
2023-04-09T20:58:02.937Z,19.17
2023-04-09T21:00:33.003Z,20.60
2023-04-09T21:03:11.984Z,20.53
2023-04-09T21:05:41.418Z,23.40
2023-04-09T21:08:15.546Z,19.10
2023-04-09T21:10:47.681Z,20.53
2023-04-09T21:13:20.176Z,21.63
2023-04-09T21:15:50.430Z,23.47
2023-04-09T21:18:21.828Z,23.57
2023-04-09T21:20:53.038Z,20.47
2023-04-09T21:23:23.990Z,19.80
2023-04-09T21:25:52.490Z,18.93
2023-04-09T21:28:23.760Z,19.17
2023-04-09T21:30:54.147Z,17.77
2023-04-09T21:33:27.047Z,18.47
2023-04-09T21:36:00.429Z,18.90
2023-04-09T21:38:34.386Z,19.10
2023-04-09T21:41:07.085Z,19.43
2023-04-09T21:43:38.461Z,19.53
2023-04-09T21:46:12.292Z,18.67
2023-04-09T21:48:54.512Z,18.87
2023-04-09T21:51:25.734Z,19.33
2023-04-09T21:54:07.258Z,18.93
2023-04-09T21:56:52.112Z,21.53
2023-04-09T21:59:23.316Z,18.13
2023-04-09T22:01:53.268Z,21.27
2023-04-09T22:04:24.264Z,19.20
2023-04-09T22:06:53.443Z,22.30
2023-04-09T22:09:30.101Z,20.43
2023-04-09T22:12:02.773Z,21.07
2023-04-09T22:14:41.697Z,17.33
2023-04-09T22:17:13.646Z,17.63
2023-04-09T22:19:56.687Z,19.57
2023-04-09T22:22:35.311Z,20.33
2023-04-09T22:25:13.466Z,20.90
2023-04-09T22:27:44.967Z,21.87
2023-04-09T22:30:19.737Z,19.40
2023-04-09T22:32:54.097Z,20.80
2023-04-09T22:35:38.185Z,17.40
2023-04-09T22:38:07.660Z,20.10
2023-04-09T22:40:36.961Z,20.90
2023-04-09T22:43:08.085Z,20.07
2023-04-09T22:45:39.287Z,19.37
2023-04-09T22:48:10.230Z,21.50
2023-04-09T22:50:51.522Z,21.30
2023-04-09T22:53:25.620Z,20.33
2023-04-09T22:55:55.764Z,19.23
2023-04-09T22:58:24.651Z,23.20
2023-04-09T23:00:57.453Z,20.77
2023-04-09T23:03:26.714Z,18.60
2023-04-09T23:06:10.164Z,18.87
2023-04-09T23:08:40.578Z,19.63
2023-04-09T23:11:10.471Z,20.73
2023-04-09T23:13:48.615Z,21.13
2023-04-09T23:16:22.280Z,19.97
2023-04-09T23:18:52.688Z,19.87
2023-04-09T23:21:37.155Z,18.30
2023-04-09T23:24:07.999Z,20.90
2023-04-09T23:26:39.958Z,18.67
2023-04-09T23:29:08.440Z,23.70
2023-04-09T23:31:39.096Z,19.30
2023-04-09T23:34:10.790Z,22.60
2023-04-09T23:36:51.223Z,19.83
2023-04-09T23:39:24.374Z,19.67
2023-04-09T23:41:57.848Z,19.23
2023-04-09T23:44:28.121Z,19.80
2023-04-09T23:46:58.859Z,18.03
2023-04-09T23:49:30.643Z,16.70
2023-04-09T23:52:10.799Z,18.70
2023-04-09T23:54:44.353Z,21.77
2023-04-09T23:57:15.092Z,19.30
2023-04-09T23:59:47.185Z,18.63
